sensor_id;sensor_type;location;lat;lon;timestamp;pressure;altitude;pressure_sealevel;temperature;humidity
72855;BME280;60991;51.278;22.550;2024-03-22T00:00:41;99316.63;;;7.59;69.74
72855;BME280;60991;51.278;22.550;2024-03-22T00:02:12;99310.38;;;7.53;69.85
72855;BME280;60991;51.278;22.550;2024-03-22T00:03:42;99315.00;;;7.58;70.15
72855;BME280;60991;51.278;22.550;2024-03-22T00:05:12;99303.63;;;7.57;70.04
72855;BME280;60991;51.278;22.550;2024-03-22T00:06:45;99304.75;;;7.43;70.32
72855;BME280;60991;51.278;22.550;2024-03-22T00:08:15;99297.94;;;7.36;71.14
72855;BME280;60991;51.278;22.550;2024-03-22T00:09:45;99298.97;;;7.35;70.76
72855;BME280;60991;51.278;22.550;2024-03-22T00:11:16;99299.56;;;7.37;70.95
72855;BME280;60991;51.278;22.550;2024-03-22T00:12:46;99300.28;;;7.44;70.73
72855;BME280;60991;51.278;22.550;2024-03-22T00:14:16;99298.25;;;7.46;70.99
72855;BME280;60991;51.278;22.550;2024-03-22T00:15:46;99285.47;;;7.43;70.62
72855;BME280;60991;51.278;22.550;2024-03-22T00:17:17;99289.81;;;7.37;70.83
72855;BME280;60991;51.278;22.550;2024-03-22T00:18:47;99279.97;;;7.44;70.37
72855;BME280;60991;51.278;22.550;2024-03-22T00:20:17;99279.69;;;7.52;70.10
72855;BME280;60991;51.278;22.550;2024-03-22T00:21:47;99274.03;;;7.49;70.43
72855;BME280;60991;51.278;22.550;2024-03-22T00:23:17;99280.56;;;7.46;69.97
72855;BME280;60991;51.278;22.550;2024-03-22T00:24:48;99278.50;;;7.48;70.15
72855;BME280;60991;51.278;22.550;2024-03-22T00:26:18;99277.91;;;7.46;70.50
72855;BME280;60991;51.278;22.550;2024-03-22T00:27:48;99277.00;;;7.41;70.76
72855;BME280;60991;51.278;22.550;2024-03-22T00:29:18;99273.31;;;7.42;70.77
72855;BME280;60991;51.278;22.550;2024-03-22T00:30:48;99271.47;;;7.42;70.59
72855;BME280;60991;51.278;22.550;2024-03-22T00:32:19;99273.31;;;7.42;70.64
72855;BME280;60991;51.278;22.550;2024-03-22T00:33:49;99266.97;;;7.43;70.83
72855;BME280;60991;51.278;22.550;2024-03-22T00:35:19;99264.81;;;7.40;70.74
72855;BME280;60991;51.278;22.550;2024-03-22T00:36:49;99271.41;;;7.49;71.16
72855;BME280;60991;51.278;22.550;2024-03-22T00:38:19;99270.75;;;7.53;70.95
72855;BME280;60991;51.278;22.550;2024-03-22T00:39:50;99260.47;;;7.63;70.02
72855;BME280;60991;51.278;22.550;2024-03-22T00:41:20;99259.66;;;7.63;70.16
72855;BME280;60991;51.278;22.550;2024-03-22T00:42:50;99258.63;;;7.64;70.13
72855;BME280;60991;51.278;22.550;2024-03-22T00:44:20;99260.81;;;7.67;69.76
72855;BME280;60991;51.278;22.550;2024-03-22T00:45:51;99258.03;;;7.62;70.17
72855;BME280;60991;51.278;22.550;2024-03-22T00:47:22;99262.06;;;7.64;70.02
72855;BME280;60991;51.278;22.550;2024-03-22T00:48:52;99267.34;;;7.64;69.97
72855;BME280;60991;51.278;22.550;2024-03-22T00:50:22;99265.97;;;7.62;69.74
72855;BME280;60991;51.278;22.550;2024-03-22T00:51:52;99269.72;;;7.54;70.49
72855;BME280;60991;51.278;22.550;2024-03-22T00:53:23;99273.38;;;7.35;70.54
72855;BME280;60991;51.278;22.550;2024-03-22T00:54:53;99273.75;;;7.39;70.38
72855;BME280;60991;51.278;22.550;2024-03-22T00:56:23;99271.16;;;7.32;70.26
72855;BME280;60991;51.278;22.550;2024-03-22T00:57:53;99278.22;;;7.38;70.66
72855;BME280;60991;51.278;22.550;2024-03-22T00:59:23;99270.88;;;7.22;71.27
72855;BME280;60991;51.278;22.550;2024-03-22T01:00:54;99268.94;;;7.11;72.16
72855;BME280;60991;51.278;22.550;2024-03-22T01:02:24;99269.44;;;7.01;72.04
72855;BME280;60991;51.278;22.550;2024-03-22T01:03:55;99277.19;;;6.96;72.49
72855;BME280;60991;51.278;22.550;2024-03-22T01:05:25;99276.44;;;6.89;73.17
72855;BME280;60991;51.278;22.550;2024-03-22T01:06:55;99276.72;;;6.81;73.43
72855;BME280;60991;51.278;22.550;2024-03-22T01:08:25;99266.38;;;6.79;73.64
72855;BME280;60991;51.278;22.550;2024-03-22T01:09:55;99265.06;;;6.88;73.13
72855;BME280;60991;51.278;22.550;2024-03-22T01:11:26;99267.44;;;6.97;73.20
72855;BME280;60991;51.278;22.550;2024-03-22T01:12:56;99261.22;;;7.09;73.08
72855;BME280;60991;51.278;22.550;2024-03-22T01:14:26;99264.91;;;7.08;72.95
72855;BME280;60991;51.278;22.550;2024-03-22T01:15:56;99257.09;;;6.95;73.46
72855;BME280;60991;51.278;22.550;2024-03-22T01:17:26;99247.75;;;6.99;73.42
72855;BME280;60991;51.278;22.550;2024-03-22T01:18:57;99246.28;;;7.03;73.37
72855;BME280;60991;51.278;22.550;2024-03-22T01:20:27;99253.25;;;6.98;73.85
72855;BME280;60991;51.278;22.550;2024-03-22T01:21:57;99253.06;;;7.17;73.04
72855;BME280;60991;51.278;22.550;2024-03-22T01:23:27;99249.09;;;7.26;72.73
72855;BME280;60991;51.278;22.550;2024-03-22T01:24:57;99261.13;;;7.22;72.89
72855;BME280;60991;51.278;22.550;2024-03-22T01:26:28;99264.84;;;7.15;73.13
72855;BME280;60991;51.278;22.550;2024-03-22T01:27:58;99264.84;;;7.15;73.08
72855;BME280;60991;51.278;22.550;2024-03-22T01:29:28;99260.06;;;7.05;73.12
72855;BME280;60991;51.278;22.550;2024-03-22T01:30:58;99262.94;;;7.04;73.02
72855;BME280;60991;51.278;22.550;2024-03-22T01:32:29;99267.41;;;7.03;73.77
72855;BME280;60991;51.278;22.550;2024-03-22T01:33:59;99271.91;;;6.96;74.04
72855;BME280;60991;51.278;22.550;2024-03-22T01:35:29;99272.19;;;6.88;74.73
72855;BME280;60991;51.278;22.550;2024-03-22T01:36:59;99279.16;;;6.82;74.43
72855;BME280;60991;51.278;22.550;2024-03-22T01:38:29;99271.03;;;6.84;74.37
72855;BME280;60991;51.278;22.550;2024-03-22T01:40:00;99267.84;;;6.75;75.10
72855;BME280;60991;51.278;22.550;2024-03-22T01:41:30;99266.84;;;6.70;75.76
72855;BME280;60991;51.278;22.550;2024-03-22T01:43:00;99273.16;;;6.69;75.46
72855;BME280;60991;51.278;22.550;2024-03-22T01:44:31;99270.38;;;6.64;75.91
72855;BME280;60991;51.278;22.550;2024-03-22T01:46:02;99263.09;;;6.59;75.98
72855;BME280;60991;51.278;22.550;2024-03-22T01:47:33;99259.25;;;6.55;76.39
72855;BME280;60991;51.278;22.550;2024-03-22T01:49:03;99254.19;;;6.53;76.72
72855;BME280;60991;51.278;22.550;2024-03-22T01:50:33;99254.59;;;6.57;76.09
72855;BME280;60991;51.278;22.550;2024-03-22T01:52:04;99253.19;;;6.54;76.55
72855;BME280;60991;51.278;22.550;2024-03-22T01:53:35;99249.53;;;6.55;76.15
72855;BME280;60991;51.278;22.550;2024-03-22T01:55:07;99252.75;;;6.57;76.03
72855;BME280;60991;51.278;22.550;2024-03-22T01:56:38;99244.13;;;6.69;76.23
72855;BME280;60991;51.278;22.550;2024-03-22T01:58:08;99248.56;;;6.75;76.05
72855;BME280;60991;51.278;22.550;2024-03-22T01:59:39;99239.38;;;6.84;76.13
72855;BME280;60991;51.278;22.550;2024-03-22T02:01:09;99243.09;;;6.94;75.26
72855;BME280;60991;51.278;22.550;2024-03-22T02:02:39;99246.63;;;7.07;74.39
72855;BME280;60991;51.278;22.550;2024-03-22T02:04:10;99241.66;;;6.99;74.58
72855;BME280;60991;51.278;22.550;2024-03-22T02:05:40;99246.13;;;6.98;74.54
72855;BME280;60991;51.278;22.550;2024-03-22T02:07:10;99251.31;;;6.86;75.47
72855;BME280;60991;51.278;22.550;2024-03-22T02:08:40;99247.31;;;6.77;74.80
72855;BME280;60991;51.278;22.550;2024-03-22T02:10:11;99241.66;;;6.74;74.92
72855;BME280;60991;51.278;22.550;2024-03-22T02:11:42;99248.69;;;6.86;75.23
72855;BME280;60991;51.278;22.550;2024-03-22T02:13:12;99252.16;;;6.80;75.46
72855;BME280;60991;51.278;22.550;2024-03-22T02:14:43;99251.78;;;6.77;75.82
72855;BME280;60991;51.278;22.550;2024-03-22T02:16:13;99242.44;;;6.81;75.24
72855;BME280;60991;51.278;22.550;2024-03-22T02:17:43;99251.44;;;6.91;75.13
72855;BME280;60991;51.278;22.550;2024-03-22T02:19:13;99248.34;;;7.01;75.00
72855;BME280;60991;51.278;22.550;2024-03-22T02:20:43;99251.19;;;7.00;74.52
72855;BME280;60991;51.278;22.550;2024-03-22T02:22:14;99237.63;;;6.96;74.78
72855;BME280;60991;51.278;22.550;2024-03-22T02:23:44;99234.56;;;6.99;75.45
72855;BME280;60991;51.278;22.550;2024-03-22T02:25:14;99239.19;;;7.04;75.14
72855;BME280;60991;51.278;22.550;2024-03-22T02:26:44;99230.50;;;6.97;75.45
72855;BME280;60991;51.278;22.550;2024-03-22T02:28:15;99223.31;;;6.85;75.72
72855;BME280;60991;51.278;22.550;2024-03-22T02:29:45;99217.94;;;6.74;76.02
72855;BME280;60991;51.278;22.550;2024-03-22T02:31:15;99215.38;;;6.67;76.12
72855;BME280;60991;51.278;22.550;2024-03-22T02:32:45;99210.56;;;6.57;76.34
72855;BME280;60991;51.278;22.550;2024-03-22T02:34:15;99206.13;;;6.51;76.46
72855;BME280;60991;51.278;22.550;2024-03-22T02:35:46;99197.28;;;6.46;76.77
72855;BME280;60991;51.278;22.550;2024-03-22T02:37:17;99189.41;;;6.39;77.19
72855;BME280;60991;51.278;22.550;2024-03-22T02:38:47;99185.19;;;6.32;77.89
72855;BME280;60991;51.278;22.550;2024-03-22T02:40:17;99177.78;;;6.22;78.74
72855;BME280;60991;51.278;22.550;2024-03-22T02:41:47;99178.00;;;6.20;78.97
72855;BME280;60991;51.278;22.550;2024-03-22T02:43:18;99183.06;;;6.22;78.73
72855;BME280;60991;51.278;22.550;2024-03-22T02:44:48;99190.94;;;6.29;78.71
72855;BME280;60991;51.278;22.550;2024-03-22T02:46:18;99190.22;;;6.40;77.87
72855;BME280;60991;51.278;22.550;2024-03-22T02:47:48;99189.19;;;6.66;77.35
72855;BME280;60991;51.278;22.550;2024-03-22T02:49:18;99193.28;;;6.86;76.17
72855;BME280;60991;51.278;22.550;2024-03-22T02:50:56;99190.16;;;6.71;77.89
72855;BME280;60991;51.278;22.550;2024-03-22T02:52:26;99189.34;;;6.71;77.51
72855;BME280;60991;51.278;22.550;2024-03-22T02:53:56;99185.34;;;6.86;76.97
72855;BME280;60991;51.278;22.550;2024-03-22T02:55:27;99195.41;;;6.96;76.31
72855;BME280;60991;51.278;22.550;2024-03-22T02:56:57;99196.38;;;7.02;76.02
72855;BME280;60991;51.278;22.550;2024-03-22T02:58:28;99193.63;;;7.08;76.00
72855;BME280;60991;51.278;22.550;2024-03-22T03:00:00;99189.16;;;7.09;75.19
72855;BME280;60991;51.278;22.550;2024-03-22T03:01:30;99195.47;;;7.08;75.12
72855;BME280;60991;51.278;22.550;2024-03-22T03:03:00;99185.38;;;7.05;75.09
72855;BME280;60991;51.278;22.550;2024-03-22T03:04:30;99193.84;;;7.07;75.35
72855;BME280;60991;51.278;22.550;2024-03-22T03:06:00;99192.03;;;7.07;74.72
72855;BME280;60991;51.278;22.550;2024-03-22T03:07:31;99192.97;;;6.94;75.17
72855;BME280;60991;51.278;22.550;2024-03-22T03:09:01;99187.41;;;6.84;75.23
72855;BME280;60991;51.278;22.550;2024-03-22T03:10:31;99186.44;;;6.79;75.91
72855;BME280;60991;51.278;22.550;2024-03-22T03:12:01;99192.34;;;6.74;76.00
72855;BME280;60991;51.278;22.550;2024-03-22T03:13:31;99184.53;;;6.68;76.53
72855;BME280;60991;51.278;22.550;2024-03-22T03:15:02;99184.53;;;6.68;76.15
72855;BME280;60991;51.278;22.550;2024-03-22T03:16:32;99180.56;;;6.77;76.74
72855;BME280;60991;51.278;22.550;2024-03-22T03:18:03;99181.38;;;6.77;76.21
72855;BME280;60991;51.278;22.550;2024-03-22T03:19:33;99173.09;;;6.74;76.32
72855;BME280;60991;51.278;22.550;2024-03-22T03:21:03;99178.09;;;6.82;76.30
72855;BME280;60991;51.278;22.550;2024-03-22T03:22:34;99175.03;;;6.85;75.95
72855;BME280;60991;51.278;22.550;2024-03-22T03:24:04;99177.13;;;6.76;76.66
72855;BME280;60991;51.278;22.550;2024-03-22T03:25:34;99176.53;;;6.74;76.24
72855;BME280;60991;51.278;22.550;2024-03-22T03:27:05;99175.72;;;6.74;76.48
72855;BME280;60991;51.278;22.550;2024-03-22T03:28:35;99173.47;;;6.77;76.66
72855;BME280;60991;51.278;22.550;2024-03-22T03:30:06;99173.19;;;6.85;76.62
72855;BME280;60991;51.278;22.550;2024-03-22T03:31:36;99167.09;;;6.85;76.46
72855;BME280;60991;51.278;22.550;2024-03-22T03:33:06;99166.56;;;6.76;76.56
72855;BME280;60991;51.278;22.550;2024-03-22T03:34:36;99163.94;;;6.76;76.18
72855;BME280;60991;51.278;22.550;2024-03-22T03:36:07;99162.75;;;6.72;76.23
72855;BME280;60991;51.278;22.550;2024-03-22T03:37:37;99172.50;;;6.72;76.40
72855;BME280;60991;51.278;22.550;2024-03-22T03:39:07;99166.34;;;6.78;76.79
72855;BME280;60991;51.278;22.550;2024-03-22T03:40:37;99162.47;;;6.80;76.46
72855;BME280;60991;51.278;22.550;2024-03-22T03:42:08;99173.31;;;6.90;76.42
72855;BME280;60991;51.278;22.550;2024-03-22T03:43:38;99168.19;;;6.95;76.60
72855;BME280;60991;51.278;22.550;2024-03-22T03:45:08;99171.28;;;6.92;76.85
72855;BME280;60991;51.278;22.550;2024-03-22T03:46:38;99165.50;;;6.84;76.64
72855;BME280;60991;51.278;22.550;2024-03-22T03:48:09;99164.97;;;6.93;76.44
72855;BME280;60991;51.278;22.550;2024-03-22T03:49:39;99165.84;;;6.87;76.75
72855;BME280;60991;51.278;22.550;2024-03-22T03:51:09;99169.22;;;6.94;76.41
72855;BME280;60991;51.278;22.550;2024-03-22T03:52:39;99165.19;;;6.92;76.12
72855;BME280;60991;51.278;22.550;2024-03-22T03:54:09;99169.06;;;6.89;75.88
72855;BME280;60991;51.278;22.550;2024-03-22T03:55:40;99172.72;;;6.88;76.18
72855;BME280;60991;51.278;22.550;2024-03-22T03:57:10;99175.16;;;6.90;76.77
72855;BME280;60991;51.278;22.550;2024-03-22T03:58:40;99170.69;;;6.90;76.00
72855;BME280;60991;51.278;22.550;2024-03-22T04:00:11;99173.19;;;6.85;76.90
72855;BME280;60991;51.278;22.550;2024-03-22T04:01:41;99160.72;;;6.92;76.55
72855;BME280;60991;51.278;22.550;2024-03-22T04:03:11;99169.66;;;6.91;76.57
72855;BME280;60991;51.278;22.550;2024-03-22T04:04:41;99163.56;;;6.91;77.02
72855;BME280;60991;51.278;22.550;2024-03-22T04:06:12;99164.69;;;7.02;76.60
72855;BME280;60991;51.278;22.550;2024-03-22T04:07:42;99163.22;;;7.06;76.67
72855;BME280;60991;51.278;22.550;2024-03-22T04:09:12;99159.75;;;7.05;76.35
72855;BME280;60991;51.278;22.550;2024-03-22T04:10:51;99161.84;;;7.03;76.57
72855;BME280;60991;51.278;22.550;2024-03-22T04:12:21;99162.78;;;7.09;76.41
72855;BME280;60991;51.278;22.550;2024-03-22T04:13:51;99162.78;;;7.09;75.97
72855;BME280;60991;51.278;22.550;2024-03-22T04:15:22;99155.66;;;7.09;76.39
72855;BME280;60991;51.278;22.550;2024-03-22T04:16:52;99160.00;;;7.04;76.35
72855;BME280;60991;51.278;22.550;2024-03-22T04:18:22;99156.19;;;7.00;76.49
72855;BME280;60991;51.278;22.550;2024-03-22T04:19:52;99163.44;;;7.04;76.81
72855;BME280;60991;51.278;22.550;2024-03-22T04:21:23;99161.63;;;7.05;76.46
72855;BME280;60991;51.278;22.550;2024-03-22T04:22:53;99157.50;;;7.09;76.77
72855;BME280;60991;51.278;22.550;2024-03-22T04:24:23;99158.44;;;7.14;76.43
72855;BME280;60991;51.278;22.550;2024-03-22T04:25:58;99160.00;;;7.04;77.14
72855;BME280;60991;51.278;22.550;2024-03-22T04:27:29;99154.94;;;7.02;76.91
72855;BME280;60991;51.278;22.550;2024-03-22T04:28:59;99157.22;;;6.99;77.79
72855;BME280;60991;51.278;22.550;2024-03-22T04:30:29;99155.00;;;6.95;77.39
72855;BME280;60991;51.278;22.550;2024-03-22T04:32:00;99155.59;;;6.98;77.38
72855;BME280;60991;51.278;22.550;2024-03-22T04:33:31;99162.28;;;7.00;77.54
72855;BME280;60991;51.278;22.550;2024-03-22T04:35:03;99157.59;;;7.02;77.31
72855;BME280;60991;51.278;22.550;2024-03-22T04:36:33;99164.53;;;7.15;77.11
72855;BME280;60991;51.278;22.550;2024-03-22T04:38:03;99160.00;;;7.22;77.17
72855;BME280;60991;51.278;22.550;2024-03-22T04:39:34;99166.31;;;7.21;77.13
72855;BME280;60991;51.278;22.550;2024-03-22T04:41:04;99174.28;;;7.33;76.47
72855;BME280;60991;51.278;22.550;2024-03-22T04:42:34;99167.03;;;7.28;76.58
72855;BME280;60991;51.278;22.550;2024-03-22T04:44:04;99163.56;;;7.27;77.33
72855;BME280;60991;51.278;22.550;2024-03-22T04:45:34;99162.88;;;7.20;76.85
72855;BME280;60991;51.278;22.550;2024-03-22T04:47:05;99172.38;;;7.40;76.54
72855;BME280;60991;51.278;22.550;2024-03-22T04:48:35;99167.75;;;7.35;76.60
72855;BME280;60991;51.278;22.550;2024-03-22T04:50:05;99165.34;;;7.34;76.21
72855;BME280;60991;51.278;22.550;2024-03-22T04:51:36;99167.75;;;7.35;76.29
72855;BME280;60991;51.278;22.550;2024-03-22T04:53:06;99164.69;;;7.38;76.51
72855;BME280;60991;51.278;22.550;2024-03-22T04:54:36;99164.53;;;7.33;76.96
72855;BME280;60991;51.278;22.550;2024-03-22T04:56:06;99167.81;;;7.28;76.67
72855;BME280;60991;51.278;22.550;2024-03-22T04:57:37;99165.13;;;7.35;76.90
72855;BME280;60991;51.278;22.550;2024-03-22T04:59:07;99161.72;;;7.46;76.43
72855;BME280;60991;51.278;22.550;2024-03-22T05:00:37;99164.00;;;7.43;77.09
72855;BME280;60991;51.278;22.550;2024-03-22T05:02:07;99163.34;;;7.47;76.81
72855;BME280;60991;51.278;22.550;2024-03-22T05:03:38;99166.72;;;7.54;76.71
72855;BME280;60991;51.278;22.550;2024-03-22T05:05:08;99174.41;;;7.56;76.30
72855;BME280;60991;51.278;22.550;2024-03-22T05:06:38;99165.03;;;7.60;76.42
72855;BME280;60991;51.278;22.550;2024-03-22T05:08:08;99168.53;;;7.54;77.01
72855;BME280;60991;51.278;22.550;2024-03-22T05:09:39;99171.34;;;7.59;77.35
72855;BME280;60991;51.278;22.550;2024-03-22T05:11:09;99173.88;;;7.65;76.94
72855;BME280;60991;51.278;22.550;2024-03-22T05:12:39;99173.88;;;7.65;76.91
72855;BME280;60991;51.278;22.550;2024-03-22T05:14:09;99174.31;;;7.62;76.85
72855;BME280;60991;51.278;22.550;2024-03-22T05:15:40;99176.09;;;7.50;76.95
72855;BME280;60991;51.278;22.550;2024-03-22T05:17:10;99176.16;;;7.44;77.41
72855;BME280;60991;51.278;22.550;2024-03-22T05:18:40;99172.66;;;7.50;77.36
72855;BME280;60991;51.278;22.550;2024-03-22T05:20:10;99176.09;;;7.50;77.73
72855;BME280;60991;51.278;22.550;2024-03-22T05:21:41;99181.31;;;7.57;77.51
72855;BME280;60991;51.278;22.550;2024-03-22T05:23:11;99178.09;;;7.55;77.29
72855;BME280;60991;51.278;22.550;2024-03-22T05:24:41;99176.63;;;7.59;77.87
72855;BME280;60991;51.278;22.550;2024-03-22T05:26:11;99178.78;;;7.62;77.52
72855;BME280;60991;51.278;22.550;2024-03-22T05:27:42;99168.81;;;7.64;77.95
72855;BME280;60991;51.278;22.550;2024-03-22T05:29:12;99178.63;;;7.75;77.72
72855;BME280;60991;51.278;22.550;2024-03-22T05:30:42;99176.66;;;7.71;77.99
72855;BME280;60991;51.278;22.550;2024-03-22T05:32:12;99181.19;;;7.63;78.18
72855;BME280;60991;51.278;22.550;2024-03-22T05:33:43;99182.34;;;7.56;78.21
72855;BME280;60991;51.278;22.550;2024-03-22T05:35:13;99185.09;;;7.61;78.36
72855;BME280;60991;51.278;22.550;2024-03-22T05:36:44;99187.72;;;7.61;78.98
72855;BME280;60991;51.278;22.550;2024-03-22T05:38:15;99185.31;;;7.78;78.64
72855;BME280;60991;51.278;22.550;2024-03-22T05:39:45;99193.63;;;7.93;77.67
72855;BME280;60991;51.278;22.550;2024-03-22T05:41:15;99187.44;;;7.99;77.70
72855;BME280;60991;51.278;22.550;2024-03-22T05:42:45;99187.53;;;7.92;77.98
72855;BME280;60991;51.278;22.550;2024-03-22T05:44:16;99184.69;;;8.06;77.31
72855;BME280;60991;51.278;22.550;2024-03-22T05:45:46;99185.59;;;7.99;78.01
72855;BME280;60991;51.278;22.550;2024-03-22T05:47:16;99192.50;;;8.00;77.47
72855;BME280;60991;51.278;22.550;2024-03-22T05:48:46;99197.09;;;8.05;77.42
72855;BME280;60991;51.278;22.550;2024-03-22T05:50:17;99202.66;;;8.15;77.01
72855;BME280;60991;51.278;22.550;2024-03-22T05:51:47;99201.28;;;8.24;76.74
72855;BME280;60991;51.278;22.550;2024-03-22T05:53:17;99207.53;;;8.30;77.21
72855;BME280;60991;51.278;22.550;2024-03-22T05:54:47;99202.16;;;8.37;76.97
72855;BME280;60991;51.278;22.550;2024-03-22T05:56:17;99199.06;;;8.40;77.14
72855;BME280;60991;51.278;22.550;2024-03-22T05:57:48;99201.03;;;8.44;76.74
72855;BME280;60991;51.278;22.550;2024-03-22T05:59:18;99200.53;;;8.36;77.32
72855;BME280;60991;51.278;22.550;2024-03-22T06:00:49;99196.81;;;8.25;77.88
72855;BME280;60991;51.278;22.550;2024-03-22T06:02:19;99199.00;;;8.28;77.00
72855;BME280;60991;51.278;22.550;2024-03-22T06:03:49;99197.75;;;8.30;77.13
72855;BME280;60991;51.278;22.550;2024-03-22T06:05:19;99198.16;;;8.34;77.45
72855;BME280;60991;51.278;22.550;2024-03-22T06:06:50;99196.06;;;8.36;77.72
72855;BME280;60991;51.278;22.550;2024-03-22T06:08:20;99195.25;;;8.36;77.94
72855;BME280;60991;51.278;22.550;2024-03-22T06:09:50;99201.34;;;8.36;77.77
72855;BME280;60991;51.278;22.550;2024-03-22T06:11:21;99195.72;;;8.32;77.89
72855;BME280;60991;51.278;22.550;2024-03-22T06:12:51;99195.50;;;8.46;77.77
72855;BME280;60991;51.278;22.550;2024-03-22T06:14:21;99199.31;;;8.50;77.64
72855;BME280;60991;51.278;22.550;2024-03-22T06:15:51;99201.38;;;8.59;76.84
72855;BME280;60991;51.278;22.550;2024-03-22T06:17:21;99203.91;;;8.54;77.64
72855;BME280;60991;51.278;22.550;2024-03-22T06:18:52;99201.84;;;8.45;77.89
72855;BME280;60991;51.278;22.550;2024-03-22T06:20:22;99204.69;;;8.43;78.24
72855;BME280;60991;51.278;22.550;2024-03-22T06:21:52;99199.09;;;8.51;78.29
72855;BME280;60991;51.278;22.550;2024-03-22T06:23:22;99204.25;;;8.58;77.68
72855;BME280;60991;51.278;22.550;2024-03-22T06:24:53;99207.47;;;8.60;77.93
72855;BME280;60991;51.278;22.550;2024-03-22T06:26:23;99205.06;;;8.58;78.40
72855;BME280;60991;51.278;22.550;2024-03-22T06:27:53;99211.88;;;8.66;78.11
72855;BME280;60991;51.278;22.550;2024-03-22T06:29:23;99206.31;;;8.56;78.53
72855;BME280;60991;51.278;22.550;2024-03-22T06:30:54;99212.41;;;8.56;78.53
72855;BME280;60991;51.278;22.550;2024-03-22T06:32:24;99202.78;;;8.62;78.00
72855;BME280;60991;51.278;22.550;2024-03-22T06:33:54;99197.03;;;8.65;77.91
72855;BME280;60991;51.278;22.550;2024-03-22T06:35:24;99200.56;;;8.59;78.03
72855;BME280;60991;51.278;22.550;2024-03-22T06:36:54;99207.97;;;8.68;78.14
72855;BME280;60991;51.278;22.550;2024-03-22T06:38:25;99197.97;;;8.71;77.90
72855;BME280;60991;51.278;22.550;2024-03-22T06:39:55;99205.75;;;8.77;77.47
72855;BME280;60991;51.278;22.550;2024-03-22T06:41:27;99198.41;;;8.79;77.69
72855;BME280;60991;51.278;22.550;2024-03-22T06:42:57;99199.91;;;8.75;77.66
72855;BME280;60991;51.278;22.550;2024-03-22T06:44:28;99203.56;;;8.74;77.77
72855;BME280;60991;51.278;22.550;2024-03-22T06:45:58;99209.13;;;8.84;77.26
72855;BME280;60991;51.278;22.550;2024-03-22T06:47:28;99202.31;;;8.65;78.12
72855;BME280;60991;51.278;22.550;2024-03-22T06:48:58;99203.34;;;8.64;78.20
72855;BME280;60991;51.278;22.550;2024-03-22T06:50:29;99204.97;;;8.77;78.07
72855;BME280;60991;51.278;22.550;2024-03-22T06:51:59;99201.75;;;8.86;77.33
72855;BME280;60991;51.278;22.550;2024-03-22T06:53:29;99204.97;;;8.88;77.71
72855;BME280;60991;51.278;22.550;2024-03-22T06:54:59;99195.63;;;8.97;77.18
72855;BME280;60991;51.278;22.550;2024-03-22T06:56:29;99199.19;;;8.91;77.78
72855;BME280;60991;51.278;22.550;2024-03-22T06:58:00;99193.00;;;8.74;77.71
72855;BME280;60991;51.278;22.550;2024-03-22T06:59:30;99199.00;;;8.70;78.78
72855;BME280;60991;51.278;22.550;2024-03-22T07:01:00;99197.03;;;8.77;78.33
72855;BME280;60991;51.278;22.550;2024-03-22T07:02:30;99186.09;;;8.73;78.41
72855;BME280;60991;51.278;22.550;2024-03-22T07:04:00;99195.66;;;8.86;78.05
72855;BME280;60991;51.278;22.550;2024-03-22T07:05:31;99196.56;;;8.80;78.08
72855;BME280;60991;51.278;22.550;2024-03-22T07:07:01;99186.31;;;8.60;78.98
72855;BME280;60991;51.278;22.550;2024-03-22T07:08:31;99184.69;;;8.47;79.59
72855;BME280;60991;51.278;22.550;2024-03-22T07:10:02;99181.34;;;8.40;79.95
72855;BME280;60991;51.278;22.550;2024-03-22T07:11:33;99183.50;;;8.31;80.58
72855;BME280;60991;51.278;22.550;2024-03-22T07:13:03;99183.94;;;8.28;80.12
72855;BME280;60991;51.278;22.550;2024-03-22T07:14:33;99175.59;;;8.43;80.46
72855;BME280;60991;51.278;22.550;2024-03-22T07:16:04;99179.88;;;8.44;80.49
72855;BME280;60991;51.278;22.550;2024-03-22T07:17:34;99174.13;;;8.59;80.01
72855;BME280;60991;51.278;22.550;2024-03-22T07:19:04;99181.25;;;8.58;79.84
72855;BME280;60991;51.278;22.550;2024-03-22T07:20:34;99171.59;;;8.52;80.32
72855;BME280;60991;51.278;22.550;2024-03-22T07:22:05;99169.19;;;8.51;80.96
72855;BME280;60991;51.278;22.550;2024-03-22T07:23:35;99177.00;;;8.57;80.94
72855;BME280;60991;51.278;22.550;2024-03-22T07:25:05;99168.16;;;8.52;80.73
72855;BME280;60991;51.278;22.550;2024-03-22T07:26:35;99166.09;;;8.65;80.81
72855;BME280;60991;51.278;22.550;2024-03-22T07:28:06;99167.56;;;8.61;80.98
72855;BME280;60991;51.278;22.550;2024-03-22T07:29:36;99166.06;;;8.54;81.45
72855;BME280;60991;51.278;22.550;2024-03-22T07:31:06;99158.69;;;8.56;81.96
72855;BME280;60991;51.278;22.550;2024-03-22T07:32:36;99170.00;;;8.63;81.35
72855;BME280;60991;51.278;22.550;2024-03-22T07:34:06;99162.72;;;8.58;81.83
72855;BME280;60991;51.278;22.550;2024-03-22T07:35:37;99167.22;;;8.58;81.99
72855;BME280;60991;51.278;22.550;2024-03-22T07:37:07;99161.72;;;8.71;81.37
72855;BME280;60991;51.278;22.550;2024-03-22T07:38:37;99168.94;;;8.64;81.74
72855;BME280;60991;51.278;22.550;2024-03-22T07:40:08;99158.59;;;8.74;81.56
72855;BME280;60991;51.278;22.550;2024-03-22T07:41:38;99158.69;;;8.79;81.59
72855;BME280;60991;51.278;22.550;2024-03-22T07:43:08;99159.41;;;8.86;81.65
72855;BME280;60991;51.278;22.550;2024-03-22T07:44:38;99162.84;;;8.87;81.79
72855;BME280;60991;51.278;22.550;2024-03-22T07:46:09;99162.16;;;8.80;82.08
72855;BME280;60991;51.278;22.550;2024-03-22T07:47:39;99162.50;;;8.83;82.10
72855;BME280;60991;51.278;22.550;2024-03-22T07:49:09;99165.94;;;8.95;81.20
72855;BME280;60991;51.278;22.550;2024-03-22T07:50:40;99167.69;;;8.90;81.35
72855;BME280;60991;51.278;22.550;2024-03-22T07:52:10;99167.31;;;8.98;81.31
72855;BME280;60991;51.278;22.550;2024-03-22T07:53:40;99169.53;;;8.89;80.96
72855;BME280;60991;51.278;22.550;2024-03-22T07:55:10;99160.28;;;8.92;81.33
72855;BME280;60991;51.278;22.550;2024-03-22T07:56:40;99170.78;;;8.98;81.47
72855;BME280;60991;51.278;22.550;2024-03-22T07:58:11;99167.66;;;9.01;81.11